Time;durP1;ratioP1;P1;durP2;ratioP2;P2;SDS_P1;SDS_P2;PMS_P1;PMS_P2;Temp;Humidity;BMP_temperature;BMP_pressure;BME280_temperature;BME280_humidity;BME280_pressure;Samples;Min_cycle;Max_cycle;Signal;HPM_P1;HPM_P2
2021/08/01 00:00:17;;;;;;;12.00;5.18;;;14.80;99.90;;;;;;5062580;28;20115;-70
2021/08/01 00:02:43;;;;;;;10.65;5.45;;;14.80;99.90;;;;;;5080077;28;20121;-70
2021/08/01 00:05:10;;;;;;;14.10;5.95;;;14.80;99.90;;;;;;5080517;28;20115;-70
2021/08/01 00:07:37;;;;;;;13.18;5.47;;;14.80;99.90;;;;;;5075685;28;20466;-70
2021/08/01 00:10:09;;;;;;;13.52;5.07;;;14.70;99.90;;;;;;5057739;28;20032;-70
2021/08/01 00:12:35;;;;;;;9.20;4.88;;;14.70;99.90;;;;;;5057648;28;20032;-70
2021/08/01 00:15:01;;;;;;;10.55;5.40;;;14.70;99.90;;;;;;5061317;28;20094;-70
2021/08/01 00:17:26;;;;;;;22.35;5.90;;;14.60;99.90;;;;;;5076616;28;20610;-74
2021/08/01 00:19:52;;;;;;;18.65;7.13;;;14.60;99.90;;;;;;5078371;28;20388;-71
2021/08/01 00:22:18;;;;;;;12.85;5.55;;;14.70;99.90;;;;;;5062819;28;20032;-71
2021/08/01 00:24:43;;;;;;;13.25;4.57;;;14.60;99.90;;;;;;5080277;28;20401;-71
2021/08/01 00:27:09;;;;;;;10.45;5.07;;;14.60;99.90;;;;;;5077994;28;20090;-70
2021/08/01 00:29:35;;;;;;;14.25;6.15;;;14.60;99.90;;;;;;5060366;28;20527;-70
2021/08/01 00:32:02;;;;;;;14.85;6.47;;;14.60;99.90;;;;;;5079183;28;20064;-70
2021/08/01 00:34:27;;;;;;;12.32;6.30;;;14.60;99.90;;;;;;5059465;28;20091;-70
2021/08/01 00:36:53;;;;;;;15.10;5.38;;;14.60;99.90;;;;;;5075735;28;20040;-70
2021/08/01 00:39:19;;;;;;;21.13;7.10;;;14.60;99.90;;;;;;5067001;28;20025;-70
2021/08/01 00:41:45;;;;;;;13.90;5.70;;;14.60;99.90;;;;;;5079445;28;20492;-70
2021/08/01 00:44:11;;;;;;;16.35;5.85;;;14.70;99.90;;;;;;5080351;28;20051;-70
2021/08/01 00:46:36;;;;;;;11.98;5.60;;;14.60;99.90;;;;;;5059261;28;20028;-70
2021/08/01 00:49:02;;;;;;;13.98;5.70;;;14.60;99.90;;;;;;5082335;28;20070;-71
2021/08/01 00:51:29;;;;;;;17.52;6.63;;;14.60;99.90;;;;;;5058131;28;20032;-70
2021/08/01 00:54:01;;;;;;;19.63;6.30;;;14.60;99.90;;;;;;5079323;28;20028;-70
2021/08/01 00:56:27;;;;;;;16.10;5.60;;;14.60;99.90;;;;;;5059285;28;20493;-70
2021/08/01 00:58:53;;;;;;;14.35;5.88;;;14.60;99.90;;;;;;5061896;28;20029;-71
2021/08/01 01:01:24;;;;;;;16.08;6.50;;;14.60;99.90;;;;;;5061924;28;20036;-71
2021/08/01 01:04:02;;;;;;;18.92;6.20;;;14.60;99.90;;;;;;5054440;28;20033;-70
2021/08/01 01:06:56;;;;;;;14.65;5.97;;;14.60;99.90;;;;;;5078222;28;20115;-70
2021/08/01 01:09:39;;;;;;;18.50;6.70;;;14.60;99.90;;;;;;5058652;28;20029;-70
2021/08/01 01:12:09;;;;;;;14.35;6.13;;;14.60;99.90;;;;;;5077932;28;20028;-70
2021/08/01 01:14:42;;;;;;;15.45;6.90;;;14.60;99.90;;;;;;5078388;28;20041;-71
2021/08/01 01:17:12;;;;;;;13.60;5.78;;;14.60;99.90;;;;;;5079551;28;20028;-70
2021/08/01 01:19:51;;;;;;;15.48;6.13;;;14.60;99.90;;;;;;5079139;28;20055;-70
2021/08/01 01:23:01;;;;;;;15.20;5.68;;;14.60;99.90;;;;;;5041958;28;20729;-70
2021/08/01 01:25:50;;;;;;;18.95;6.47;;;14.70;99.90;;;;;;5017843;28;20083;-71
2021/08/01 01:29:00;;;;;;;23.52;6.40;;;14.60;99.90;;;;;;5071859;28;20032;-71
2021/08/01 01:31:36;;;;;;;17.17;6.32;;;14.70;99.90;;;;;;5009179;28;20114;-70
2021/08/01 01:34:31;;;;;;;15.85;6.20;;;14.70;99.90;;;;;;5077823;28;20032;-70
2021/08/01 01:37:01;;;;;;;16.08;6.30;;;14.60;99.90;;;;;;5073528;28;20044;-70
2021/08/01 01:39:29;;;;;;;22.48;7.53;;;14.60;99.90;;;;;;5059577;28;20428;-70
2021/08/01 01:41:56;;;;;;;19.38;6.20;;;14.70;99.90;;;;;;5078361;28;20272;-71
2021/08/01 01:44:21;;;;;;;18.55;6.45;;;14.70;99.90;;;;;;5080691;28;20043;-70
2021/08/01 01:46:48;;;;;;;16.75;6.03;;;14.70;99.90;;;;;;5075711;28;20029;-69
2021/08/01 01:49:14;;;;;;;19.33;6.78;;;14.80;99.90;;;;;;5073915;28;20029;-70
2021/08/01 01:51:40;;;;;;;17.10;6.35;;;14.70;99.90;;;;;;5071944;28;20041;-70
2021/08/01 01:54:07;;;;;;;18.38;7.38;;;14.80;99.90;;;;;;5080732;28;20045;-70
2021/08/01 01:56:35;;;;;;;14.30;6.57;;;14.70;99.90;;;;;;5083157;28;20115;-70
2021/08/01 01:59:02;;;;;;;16.98;6.68;;;14.70;99.90;;;;;;5063066;28;20036;-70
2021/08/01 02:01:27;;;;;;;16.65;6.45;;;14.80;99.90;;;;;;5062976;28;20074;-70
2021/08/01 02:03:53;;;;;;;18.65;6.93;;;14.80;99.90;;;;;;5080131;28;20062;-71
2021/08/01 02:06:19;;;;;;;22.13;7.45;;;14.80;99.90;;;;;;5061536;28;20050;-70
2021/08/01 02:08:52;;;;;;;11.07;5.95;;;14.90;99.90;;;;;;5083782;28;20021;-70
2021/08/01 02:11:22;;;;;;;19.38;6.38;;;14.90;99.90;;;;;;5076694;28;20119;-71
2021/08/01 02:13:54;;;;;;;21.05;7.85;;;15.00;99.90;;;;;;5082782;28;20565;-70
2021/08/01 02:16:22;;;;;;;17.10;7.25;;;15.00;99.90;;;;;;5078524;28;20476;-70
2021/08/01 02:18:52;;;;;;;18.00;7.43;;;15.00;99.90;;;;;;5082554;28;20410;-70
2021/08/01 02:21:20;;;;;;;19.23;6.40;;;15.10;99.90;;;;;;5083600;28;20031;-70
2021/08/01 02:23:47;;;;;;;14.73;6.60;;;15.10;99.90;;;;;;5079094;28;20134;-70
2021/08/01 02:26:20;;;;;;;16.95;5.57;;;15.10;99.90;;;;;;5065186;28;20396;-71
2021/08/01 02:28:48;;;;;;;17.60;6.38;;;15.20;99.90;;;;;;5076070;28;20128;-70
2021/08/01 02:31:14;;;;;;;20.77;6.97;;;15.20;99.90;;;;;;5065081;28;20439;-70
2021/08/01 02:33:40;;;;;;;18.05;6.00;;;15.10;99.90;;;;;;5080419;28;20036;-70
2021/08/01 02:36:08;;;;;;;18.83;5.38;;;15.20;99.90;;;;;;5059482;28;20036;-72
2021/08/01 02:38:35;;;;;;;16.48;5.35;;;15.20;99.90;;;;;;5079261;28;20551;-70
2021/08/01 02:41:28;;;;;;;13.27;5.95;;;15.20;99.90;;;;;;5081122;28;20105;-71
2021/08/01 02:43:54;;;;;;;13.23;5.32;;;15.20;99.90;;;;;;5078507;28;20033;-70
2021/08/01 02:46:28;;;;;;;18.55;6.35;;;15.20;99.90;;;;;;5079533;28;20131;-70
2021/08/01 02:48:56;;;;;;;21.75;6.18;;;15.20;99.90;;;;;;5060622;28;20037;-70
2021/08/01 02:51:23;;;;;;;12.63;5.72;;;15.30;99.90;;;;;;5064674;28;20040;-70
2021/08/01 02:53:53;;;;;;;14.38;5.47;;;15.20;99.90;;;;;;5062661;28;20036;-70
2021/08/01 02:56:21;;;;;;;18.33;6.40;;;15.30;99.90;;;;;;5063779;28;20424;-70
2021/08/01 02:58:49;;;;;;;16.08;6.45;;;15.30;99.90;;;;;;5092865;28;20035;-70
2021/08/01 03:01:15;;;;;;;13.40;5.65;;;15.30;99.90;;;;;;5078139;28;21075;-70
2021/08/01 03:03:41;;;;;;;16.27;6.80;;;15.30;99.90;;;;;;5097452;28;20028;-71
2021/08/01 03:06:08;;;;;;;15.27;6.45;;;15.30;99.90;;;;;;5082798;28;20579;-72
2021/08/01 03:08:34;;;;;;;13.80;5.80;;;15.30;99.90;;;;;;5061390;28;20044;-70
2021/08/01 03:11:00;;;;;;;19.23;6.30;;;15.30;99.90;;;;;;5080941;28;20047;-70
2021/08/01 03:13:25;;;;;;;15.13;7.05;;;15.20;99.90;;;;;;5080964;28;20056;-70
2021/08/01 03:15:52;;;;;;;12.90;5.30;;;15.20;99.90;;;;;;5075291;28;20032;-70
2021/08/01 03:18:18;;;;;;;15.23;6.38;;;15.20;99.90;;;;;;5058964;28;20547;-70
2021/08/01 03:20:44;;;;;;;13.75;6.15;;;15.20;99.90;;;;;;5078552;28;20036;-70
2021/08/01 03:23:09;;;;;;;15.95;5.47;;;15.10;99.90;;;;;;5064217;28;20039;-70
2021/08/01 03:25:35;;;;;;;11.77;5.85;;;15.10;99.90;;;;;;5071399;28;20545;-69
2021/08/01 03:28:02;;;;;;;15.27;6.03;;;15.10;99.90;;;;;;5078772;28;20032;-70
2021/08/01 03:30:28;;;;;;;12.75;5.55;;;15.10;99.90;;;;;;5078057;28;20052;-70
2021/08/01 03:32:54;;;;;;;16.38;6.40;;;15.10;99.90;;;;;;5079445;28;20032;-70
2021/08/01 03:35:21;;;;;;;15.52;5.93;;;15.10;99.90;;;;;;5079996;28;20039;-70
2021/08/01 03:37:47;;;;;;;12.60;5.43;;;15.10;99.90;;;;;;5074453;28;20040;-70
2021/08/01 03:40:14;;;;;;;11.43;5.15;;;15.10;99.90;;;;;;5081572;28;20047;-70
2021/08/01 03:42:39;;;;;;;14.38;4.55;;;15.10;99.90;;;;;;5081629;28;20036;-70
2021/08/01 03:45:08;;;;;;;12.20;5.22;;;15.10;99.90;;;;;;5081419;28;20062;-70
2021/08/01 03:47:33;;;;;;;14.40;5.15;;;15.20;99.90;;;;;;5074068;28;20032;-70
2021/08/01 03:49:59;;;;;;;12.85;4.70;;;15.20;99.90;;;;;;5080212;28;20032;-70
2021/08/01 03:52:24;;;;;;;14.00;4.40;;;15.30;99.90;;;;;;5076781;28;20048;-70
2021/08/01 03:54:51;;;;;;;15.77;4.40;;;15.20;99.90;;;;;;5061908;28;20139;-70
2021/08/01 03:57:17;;;;;;;16.55;4.70;;;15.20;99.90;;;;;;5063517;28;20044;-70
2021/08/01 03:59:43;;;;;;;14.18;4.60;;;15.20;99.90;;;;;;5078557;28;20401;-70
2021/08/01 04:02:08;;;;;;;18.00;4.72;;;15.20;99.90;;;;;;5080849;28;20066;-71
2021/08/01 04:04:34;;;;;;;11.13;4.18;;;15.20;99.90;;;;;;5078259;28;20040;-70
2021/08/01 04:07:00;;;;;;;16.52;4.95;;;15.30;99.90;;;;;;5083955;28;20047;-71
2021/08/01 04:09:25;;;;;;;18.80;5.45;;;15.30;99.90;;;;;;5060005;28;20442;-69
2021/08/01 04:11:51;;;;;;;15.13;4.90;;;15.30;99.90;;;;;;5078044;28;20032;-70
2021/08/01 04:14:16;;;;;;;18.33;5.22;;;15.20;99.90;;;;;;5078328;28;20044;-70
2021/08/01 04:16:42;;;;;;;13.18;4.20;;;15.30;99.90;;;;;;5066612;28;20638;-70
2021/08/01 04:19:09;;;;;;;12.52;5.25;;;15.30;99.90;;;;;;5059549;28;20028;-70
2021/08/01 04:21:37;;;;;;;16.17;4.78;;;15.20;99.90;;;;;;5055405;28;20039;-70
2021/08/01 04:24:02;;;;;;;11.57;4.43;;;15.10;99.90;;;;;;5077905;28;20116;-70
2021/08/01 04:26:28;;;;;;;16.83;4.75;;;15.10;99.90;;;;;;5058777;28;20182;-72
2021/08/01 04:28:53;;;;;;;11.52;4.70;;;15.00;99.90;;;;;;5074278;28;20037;-70
2021/08/01 04:31:19;;;;;;;17.98;4.35;;;15.00;99.90;;;;;;5079344;28;20132;-70
2021/08/01 04:33:45;;;;;;;14.68;5.18;;;15.00;99.90;;;;;;5082163;28;20036;-71
2021/08/01 04:36:10;;;;;;;14.15;4.40;;;15.00;99.90;;;;;;5085031;28;20043;-71
2021/08/01 04:38:36;;;;;;;11.90;4.07;;;15.00;99.90;;;;;;5076463;28;20110;-70
2021/08/01 04:41:02;;;;;;;16.52;5.38;;;15.00;99.90;;;;;;5080880;28;20063;-70
2021/08/01 04:43:27;;;;;;;14.35;4.78;;;15.00;99.90;;;;;;5080627;28;20121;-70
2021/08/01 04:45:53;;;;;;;15.38;4.88;;;15.00;99.90;;;;;;5059997;28;20036;-71
2021/08/01 04:48:18;;;;;;;20.95;4.82;;;15.10;99.90;;;;;;5074380;28;20691;-70
2021/08/01 04:50:44;;;;;;;17.20;5.10;;;15.10;99.90;;;;;;5079967;28;20094;-70
2021/08/01 04:53:10;;;;;;;17.30;5.43;;;15.10;99.90;;;;;;5081131;28;20025;-70
2021/08/01 04:55:35;;;;;;;14.07;5.35;;;15.20;99.90;;;;;;5063262;28;20027;-70
2021/08/01 04:58:02;;;;;;;10.90;4.47;;;15.30;99.90;;;;;;5080117;28;20403;-70
2021/08/01 05:00:28;;;;;;;13.35;4.78;;;15.30;99.90;;;;;;5078242;28;20056;-70
2021/08/01 05:02:53;;;;;;;11.70;4.60;;;15.40;99.90;;;;;;5077151;28;20047;-70
2021/08/01 05:05:19;;;;;;;15.25;5.30;;;15.50;99.90;;;;;;5077944;28;20028;-70
2021/08/01 05:07:44;;;;;;;13.57;4.90;;;15.50;99.90;;;;;;5078224;28;20470;-70
2021/08/01 05:10:10;;;;;;;14.88;4.90;;;15.60;99.90;;;;;;5062413;28;20047;-70
2021/08/01 05:12:36;;;;;;;12.13;5.40;;;15.60;99.90;;;;;;5077242;28;20037;-71
2021/08/01 05:15:05;;;;;;;18.52;5.55;;;15.60;99.90;;;;;;5079832;28;20396;-70
2021/08/01 05:17:30;;;;;;;16.42;5.50;;;15.60;99.90;;;;;;5080535;28;20040;-70
2021/08/01 05:19:56;;;;;;;16.27;5.40;;;15.70;99.90;;;;;;5078190;28;20040;-70
2021/08/01 05:22:21;;;;;;;17.60;6.63;;;15.80;99.90;;;;;;5075515;28;20041;-70
2021/08/01 05:24:47;;;;;;;16.17;6.03;;;15.80;99.90;;;;;;5077653;28;20033;-69
2021/08/01 05:27:13;;;;;;;15.32;6.88;;;15.80;99.90;;;;;;5083677;28;20170;-69
2021/08/01 05:29:38;;;;;;;20.17;7.05;;;15.80;99.90;;;;;;5058713;28;20126;-69
2021/08/01 05:32:04;;;;;;;17.17;6.38;;;15.90;99.90;;;;;;5062802;28;20042;-69
2021/08/01 05:34:30;;;;;;;22.10;7.05;;;15.90;99.90;;;;;;5077480;28;20052;-69
2021/08/01 05:36:56;;;;;;;21.25;7.30;;;16.00;99.90;;;;;;5075062;28;20135;-69
2021/08/01 05:39:21;;;;;;;29.15;7.85;;;15.90;99.90;;;;;;5074449;28;20226;-69
2021/08/01 05:41:47;;;;;;;22.58;7.47;;;16.00;99.90;;;;;;5087209;28;20036;-69
2021/08/01 05:44:12;;;;;;;18.88;7.00;;;16.00;99.90;;;;;;5087140;28;20040;-69
2021/08/01 05:46:38;;;;;;;17.27;6.95;;;16.10;99.90;;;;;;5089552;28;20439;-69
2021/08/01 05:49:04;;;;;;;17.40;7.07;;;16.00;99.90;;;;;;5080120;28;20047;-69
2021/08/01 05:51:29;;;;;;;23.77;7.93;;;16.10;99.90;;;;;;5081685;28;20037;-69
2021/08/01 05:53:55;;;;;;;20.05;7.28;;;16.10;99.90;;;;;;5091733;28;20122;-70
2021/08/01 05:56:20;;;;;;;20.30;8.05;;;16.20;99.90;;;;;;5068096;28;20072;-69
2021/08/01 05:58:46;;;;;;;20.02;8.07;;;16.30;99.90;;;;;;5082821;28;20123;-69
2021/08/01 06:01:14;;;;;;;20.17;8.35;;;16.30;99.90;;;;;;5075763;28;20029;-69
2021/08/01 06:03:41;;;;;;;32.13;10.57;;;16.30;99.90;;;;;;5079366;28;20028;-69
2021/08/01 06:06:14;;;;;;;23.40;9.13;;;16.30;99.90;;;;;;5079569;28;20043;-69
2021/08/01 06:08:41;;;;;;;27.15;10.60;;;16.30;99.90;;;;;;5079073;28;20043;-69
2021/08/01 06:11:07;;;;;;;34.03;9.98;;;16.30;99.90;;;;;;5091929;28;20039;-69
2021/08/01 06:13:33;;;;;;;24.40;10.07;;;16.30;99.90;;;;;;5085043;28;20028;-69
2021/08/01 06:15:59;;;;;;;26.05;10.23;;;16.30;99.90;;;;;;5075782;28;20067;-69
2021/08/01 06:18:24;;;;;;;29.65;10.38;;;16.30;99.90;;;;;;5072422;28;20060;-68
2021/08/01 06:21:00;;;;;;;28.15;11.25;;;16.30;99.90;;;;;;5087604;28;20039;-69
2021/08/01 06:23:26;;;;;;;25.20;10.35;;;16.20;99.90;;;;;;5089017;28;20135;-69
2021/08/01 06:25:51;;;;;;;31.45;10.88;;;16.20;99.90;;;;;;5084982;28;20111;-68
2021/08/01 06:28:17;;;;;;;37.25;12.73;;;16.30;99.90;;;;;;5090309;28;20488;-69
2021/08/01 06:30:43;;;;;;;32.80;12.88;;;16.20;99.90;;;;;;5083889;28;20032;-69
2021/08/01 06:33:08;;;;;;;31.40;13.18;;;16.30;99.90;;;;;;5079137;28;20101;-69
2021/08/01 06:35:34;;;;;;;30.58;11.15;;;16.40;99.90;;;;;;5076373;28;20187;-69
2021/08/01 06:37:59;;;;;;;31.73;12.60;;;16.50;99.90;;;;;;5079815;28;20063;-69
2021/08/01 06:40:25;;;;;;;34.28;13.13;;;16.60;99.90;;;;;;5063182;28;20036;-69
2021/08/01 06:42:51;;;;;;;27.35;10.85;;;16.70;99.90;;;;;;5092388;28;20043;-69
2021/08/01 06:45:16;;;;;;;29.77;11.18;;;16.70;99.90;;;;;;5065178;28;20098;-70
2021/08/01 06:47:42;;;;;;;28.67;11.43;;;16.80;99.90;;;;;;5078035;28;20039;-69
2021/08/01 06:50:08;;;;;;;26.75;10.63;;;16.90;99.90;;;;;;5076534;28;20428;-69
2021/08/01 06:52:33;;;;;;;25.65;10.38;;;16.90;99.90;;;;;;5081572;28;20043;-69
2021/08/01 06:54:59;;;;;;;26.52;11.65;;;17.00;99.90;;;;;;5093932;28;20044;-69
2021/08/01 06:57:24;;;;;;;28.38;11.23;;;17.00;99.90;;;;;;5094979;28;20031;-69
2021/08/01 06:59:50;;;;;;;29.92;12.65;;;17.10;99.90;;;;;;5097756;28;20039;-69
2021/08/01 07:02:16;;;;;;;21.33;10.18;;;17.20;99.90;;;;;;5077336;28;20638;-69
2021/08/01 07:04:41;;;;;;;26.77;9.77;;;17.30;99.90;;;;;;5085481;28;20029;-69
2021/08/01 07:07:07;;;;;;;20.98;9.82;;;17.30;99.90;;;;;;5069176;28;20097;-69
2021/08/01 07:09:39;;;;;;;21.42;9.13;;;17.40;99.90;;;;;;5073386;28;20447;-69
2021/08/01 07:12:04;;;;;;;20.83;9.63;;;17.60;99.90;;;;;;5070341;28;20123;-69
2021/08/01 07:14:30;;;;;;;21.73;9.07;;;17.70;99.90;;;;;;5074064;28;20131;-69
2021/08/01 07:16:57;;;;;;;21.33;9.68;;;17.80;99.90;;;;;;5070182;28;20128;-69
2021/08/01 07:19:22;;;;;;;22.55;9.32;;;18.00;99.90;;;;;;5069267;28;20036;-69
2021/08/01 07:21:48;;;;;;;21.13;8.93;;;18.00;99.90;;;;;;5070465;28;20025;-69
2021/08/01 07:24:14;;;;;;;16.58;9.60;;;18.10;99.90;;;;;;5069472;28;20127;-70
2021/08/01 07:26:39;;;;;;;16.50;7.82;;;18.20;99.90;;;;;;5077943;28;20032;-69
2021/08/01 07:29:05;;;;;;;17.33;7.32;;;18.10;99.90;;;;;;5082602;28;20484;-69
2021/08/01 07:31:30;;;;;;;16.35;7.80;;;18.10;99.90;;;;;;5078004;28;20032;-69
2021/08/01 07:33:57;;;;;;;17.42;8.10;;;18.10;99.90;;;;;;5082149;28;20540;-69
2021/08/01 07:36:23;;;;;;;18.83;8.25;;;18.20;99.90;;;;;;5080803;28;20078;-69
2021/08/01 07:38:48;;;;;;;16.70;6.78;;;18.20;99.90;;;;;;5077589;28;20434;-69
2021/08/01 07:41:14;;;;;;;14.57;7.72;;;18.30;99.90;;;;;;5070186;28;20075;-70
2021/08/01 07:43:40;;;;;;;13.18;6.68;;;18.40;99.90;;;;;;5082206;28;20489;-69
2021/08/01 07:46:05;;;;;;;17.02;6.93;;;18.60;99.90;;;;;;5083546;28;20033;-69
2021/08/01 07:48:32;;;;;;;18.95;8.68;;;19.10;99.90;;;;;;5082114;28;20024;-71
2021/08/01 07:50:57;;;;;;;13.55;7.32;;;19.50;99.90;;;;;;5076883;28;20032;-71
2021/08/01 07:53:23;;;;;;;15.25;7.05;;;19.60;99.90;;;;;;5082618;28;20043;-70
2021/08/01 07:55:49;;;;;;;14.02;6.43;;;19.60;99.90;;;;;;5086180;28;20028;-70
2021/08/01 07:58:15;;;;;;;14.75;6.50;;;19.50;99.90;;;;;;5059826;28;20031;-70
2021/08/01 08:00:40;;;;;;;10.32;5.53;;;19.50;99.90;;;;;;5079824;28;20043;-70
2021/08/01 08:03:06;;;;;;;12.15;5.80;;;19.50;99.90;;;;;;5080282;28;20028;-70
2021/08/01 08:05:31;;;;;;;11.85;5.50;;;19.60;99.90;;;;;;5051244;28;20028;-70
2021/08/01 08:07:57;;;;;;;13.27;4.70;;;20.70;99.90;;;;;;5071121;28;20105;-69
2021/08/01 08:10:23;;;;;;;10.13;4.80;;;21.70;99.90;;;;;;5064294;28;20114;-70
2021/08/01 08:12:48;;;;;;;6.97;3.80;;;22.30;99.90;;;;;;5070837;28;20033;-70
2021/08/01 08:15:15;;;;;;;9.80;4.63;;;22.50;99.90;;;;;;5066349;28;20086;-69
2021/08/01 08:17:40;;;;;;;5.40;3.35;;;22.30;99.90;;;;;;5071556;28;20032;-69
2021/08/01 08:20:07;;;;;;;8.25;3.83;;;21.90;99.90;;;;;;5056999;28;20048;-68
2021/08/01 08:22:33;;;;;;;9.90;4.30;;;21.50;99.90;;;;;;5076417;28;20384;-69
2021/08/01 08:24:58;;;;;;;8.98;3.58;;;21.10;99.90;;;;;;5060860;28;20029;-69
2021/08/01 08:27:24;;;;;;;10.80;3.20;;;20.80;99.90;;;;;;5064743;28;20062;-68
2021/08/01 08:29:50;;;;;;;7.00;4.20;;;20.50;99.90;;;;;;5073931;28;20063;-68
2021/08/01 08:32:15;;;;;;;10.48;4.53;;;20.20;99.90;;;;;;5061950;28;20126;-70
2021/08/01 08:34:41;;;;;;;8.20;4.00;;;20.10;99.90;;;;;;5080028;28;20036;-68
2021/08/01 08:37:06;;;;;;;7.97;3.80;;;19.80;99.90;;;;;;5067639;28;20516;-70
2021/08/01 08:39:32;;;;;;;8.07;4.65;;;19.60;99.90;;;;;;5055694;28;20036;-71
2021/08/01 08:41:59;;;;;;;9.63;4.05;;;19.50;99.90;;;;;;5076749;28;20036;-71
2021/08/01 08:44:27;;;;;;;6.90;3.38;;;19.40;99.90;;;;;;5068487;28;20037;-71
2021/08/01 08:46:54;;;;;;;6.40;3.63;;;19.20;99.90;;;;;;5077110;28;20113;-68
2021/08/01 08:49:22;;;;;;;9.90;4.18;;;19.10;99.90;;;;;;5082656;28;20428;-69
2021/08/01 08:51:51;;;;;;;3.78;2.25;;;18.80;99.90;;;;;;5081038;28;20030;-68
2021/08/01 08:54:21;;;;;;;6.05;3.08;;;18.80;99.90;;;;;;5070594;28;20042;-69
2021/08/01 08:56:48;;;;;;;5.38;2.83;;;18.70;99.90;;;;;;5051004;28;20020;-69
2021/08/01 08:59:21;;;;;;;4.65;2.63;;;18.70;99.90;;;;;;5078406;28;20047;-68
2021/08/01 09:01:46;;;;;;;8.00;3.10;;;18.70;99.90;;;;;;5063068;28;20035;-68
2021/08/01 09:04:13;;;;;;;8.95;2.80;;;18.60;99.90;;;;;;5080107;28;20119;-68
2021/08/01 09:06:39;;;;;;;7.63;2.60;;;18.60;99.90;;;;;;5082577;28;20090;-68
2021/08/01 09:09:04;;;;;;;5.18;2.30;;;18.50;99.90;;;;;;5080990;28;20036;-68
2021/08/01 09:11:30;;;;;;;4.10;2.17;;;18.50;99.90;;;;;;5059938;28;20036;-69
2021/08/01 09:13:57;;;;;;;5.82;1.70;;;18.50;99.90;;;;;;5076295;28;20032;-69
2021/08/01 09:16:41;;;;;;;3.95;1.83;;;18.60;99.90;;;;;;5084361;28;20032;-70
2021/08/01 09:19:33;;;;;;;3.05;2.00;;;18.70;99.90;;;;;;5060306;28;20035;-68
2021/08/01 09:22:20;;;;;;;3.25;1.35;;;18.80;99.90;;;;;;5071908;28;20035;-68
2021/08/01 09:24:48;;;;;;;2.88;1.83;;;19.00;99.90;;;;;;5078155;28;20038;-68
2021/08/01 09:27:30;;;;;;;1.95;1.27;;;19.00;99.90;;;;;;5079331;28;20119;-68
2021/08/01 09:29:56;;;;;;;2.58;1.30;;;18.90;99.90;;;;;;5081519;28;20028;-68
2021/08/01 09:32:24;;;;;;;4.07;1.33;;;18.90;99.90;;;;;;5082248;28;20024;-68
2021/08/01 09:34:50;;;;;;;1.67;1.00;;;18.90;99.90;;;;;;5060489;28;20040;-68
2021/08/01 09:37:35;;;;;;;3.35;1.67;;;18.90;99.90;;;;;;5071459;28;20111;-68
2021/08/01 09:40:09;;;;;;;4.50;1.25;;;19.00;99.90;;;;;;5070628;28;20439;-69
2021/08/01 09:42:48;;;;;;;2.85;1.15;;;19.00;99.90;;;;;;5078018;28;20115;-69
2021/08/01 09:45:21;;;;;;;1.10;0.80;;;19.00;99.90;;;;;;5063768;28;20064;-69
2021/08/01 09:47:48;;;;;;;0.70;0.50;;;19.20;99.90;;;;;;5082885;28;20446;-69
2021/08/01 09:50:15;;;;;;;0.82;0.50;;;19.30;99.90;;;;;;5079123;28;20036;-69
2021/08/01 09:52:42;;;;;;;1.98;0.70;;;19.40;99.90;;;;;;5087995;28;20044;-69
2021/08/01 09:55:21;;;;;;;1.63;0.63;;;19.50;99.90;;;;;;5073342;28;20517;-69
2021/08/01 09:57:51;;;;;;;1.00;0.40;;;19.50;99.90;;;;;;5079309;28;20037;-69
2021/08/01 10:00:17;;;;;;;;;;;19.80;99.90;;;;;;5071519;28;20067;-69
2021/08/01 10:02:43;;;;;;;0.55;0.30;;;19.90;99.90;;;;;;5078937;28;19916;-70
2021/08/01 10:05:20;;;;;;;1.30;0.55;;;20.10;99.90;;;;;;5070423;28;20063;-72
2021/08/01 10:07:48;;;;;;;0.73;0.45;;;20.40;99.90;;;;;;5082968;28;20032;-70
2021/08/01 10:10:17;;;;;;;2.70;0.50;;;20.50;99.90;;;;;;5058083;28;20412;-70
2021/08/01 10:12:45;;;;;;;1.20;0.70;;;20.70;99.90;;;;;;5061093;28;20127;-70
2021/08/01 10:15:11;;;;;;;2.15;0.70;;;20.70;99.90;;;;;;5070758;28;20060;-70
2021/08/01 10:17:38;;;;;;;2.38;0.60;;;20.70;99.90;;;;;;5059653;28;20147;-70
2021/08/01 10:20:05;;;;;;;0.80;0.50;;;20.70;99.90;;;;;;5077783;28;20039;-70
2021/08/01 10:22:32;;;;;;;1.52;0.40;;;20.60;99.90;;;;;;5084567;28;20036;-70
2021/08/01 10:25:00;;;;;;;2.92;0.30;;;20.50;99.90;;;;;;5083602;28;20033;-70
2021/08/01 10:27:27;;;;;;;0.68;0.40;;;20.60;99.90;;;;;;5062087;28;20033;-70
2021/08/01 10:29:56;;;;;;;0.32;0.10;;;20.60;99.90;;;;;;5086115;28;20039;-70
2021/08/01 10:32:25;;;;;;;1.55;0.60;;;20.60;99.90;;;;;;5082157;28;20698;-70
2021/08/01 10:35:08;;;;;;;1.40;0.55;;;20.70;99.90;;;;;;5083179;28;20372;-70
2021/08/01 10:37:43;;;;;;;0.55;0.40;;;20.70;99.90;;;;;;5059554;28;20035;-70
2021/08/01 10:40:12;;;;;;;1.50;0.50;;;20.80;99.90;;;;;;5086551;28;20076;-69
2021/08/01 10:42:40;;;;;;;2.97;0.68;;;21.00;99.90;;;;;;5078781;28;20052;-70
2021/08/01 10:45:06;;;;;;;1.95;0.65;;;21.00;99.90;;;;;;5078379;28;20445;-71
2021/08/01 10:47:34;;;;;;;0.73;0.60;;;21.10;99.90;;;;;;5061901;28;20055;-70
2021/08/01 10:50:01;;;;;;;5.90;1.25;;;21.20;99.90;;;;;;5083299;28;20653;-70
2021/08/01 10:52:33;;;;;;;1.92;0.90;;;21.40;99.90;;;;;;5077582;28;20047;-70
2021/08/01 10:55:04;;;;;;;1.23;0.50;;;21.50;99.90;;;;;;5082068;28;20036;-70
2021/08/01 10:57:31;;;;;;;3.75;0.98;;;21.60;99.90;;;;;;5076988;28;20153;-71
2021/08/01 10:59:57;;;;;;;1.73;0.63;;;21.60;99.90;;;;;;5051669;28;20081;-70
2021/08/01 11:02:25;;;;;;;1.45;1.08;;;21.60;99.90;;;;;;5072464;28;20039;-70
2021/08/01 11:04:51;;;;;;;3.33;1.27;;;21.60;99.90;;;;;;5078584;28;20062;-70
2021/08/01 11:07:26;;;;;;;2.88;1.25;;;21.60;99.90;;;;;;5081083;28;20036;-70
2021/08/01 11:10:04;;;;;;;1.80;1.20;;;21.40;99.90;;;;;;5051094;28;20651;-70
2021/08/01 11:12:34;;;;;;;2.38;1.20;;;21.40;99.90;;;;;;5076114;28;20072;-71
2021/08/01 11:15:05;;;;;;;2.15;1.00;;;21.30;99.90;;;;;;5085149;28;20047;-70
2021/08/01 11:17:51;;;;;;;6.57;1.45;;;21.20;99.90;;;;;;5062054;28;20039;-70
2021/08/01 11:20:16;;;;;;;3.15;1.52;;;20.90;99.90;;;;;;5046690;28;20040;-70
2021/08/01 11:22:42;;;;;;;5.00;1.60;;;20.40;99.90;;;;;;5068859;28;20054;-72
2021/08/01 11:25:26;;;;;;;3.03;1.60;;;19.80;99.90;;;;;;5069039;28;20094;-72
2021/08/01 11:28:09;;;;;;;2.50;1.67;;;19.40;99.90;;;;;;5048712;28;20052;-70
2021/08/01 11:33:29;;;;;;;4.50;1.33;;;19.10;99.90;;;;;;5067043;28;20036;-70
2021/08/01 11:36:10;;;;;;;1.75;1.05;;;19.10;99.90;;;;;;5071861;28;20027;-70
2021/08/01 11:38:37;;;;;;;3.80;1.52;;;19.10;99.90;;;;;;5074504;28;20033;-70
2021/08/01 11:41:02;;;;;;;3.17;1.98;;;19.10;99.90;;;;;;5069555;28;20075;-69
2021/08/01 11:43:28;;;;;;;4.32;1.58;;;19.20;99.90;;;;;;5083529;28;20032;-70
2021/08/01 11:46:01;;;;;;;3.13;1.58;;;19.20;99.90;;;;;;5088970;28;20050;-70
2021/08/01 11:48:27;;;;;;;4.25;1.30;;;19.40;99.90;;;;;;5078914;28;20135;-70
2021/08/01 11:50:56;;;;;;;3.05;1.38;;;19.70;99.90;;;;;;5063227;28;20093;-71
2021/08/01 11:53:23;;;;;;;2.50;1.20;;;19.90;99.90;;;;;;5085305;28;20553;-70
2021/08/01 11:55:49;;;;;;;1.60;1.00;;;20.00;99.90;;;;;;5080064;28;20063;-70
2021/08/01 11:58:15;;;;;;;1.70;1.17;;;20.10;99.90;;;;;;5080302;28;20068;-70
2021/08/01 12:00:42;;;;;;;2.50;1.05;;;20.30;99.90;;;;;;5084077;28;20044;-71
2021/08/01 12:03:09;;;;;;;1.73;0.85;;;20.60;99.90;;;;;;5080982;28;20036;-70
2021/08/01 12:05:48;;;;;;;1.52;0.93;;;20.90;99.90;;;;;;5068582;28;20481;-70
2021/08/01 12:08:29;;;;;;;1.20;0.65;;;21.30;99.90;;;;;;5072432;28;20032;-70
2021/08/01 12:11:07;;;;;;;5.18;1.15;;;21.50;99.90;;;;;;5088376;28;20054;-71
2021/08/01 12:13:32;;;;;;;1.67;0.93;;;21.50;99.90;;;;;;5070440;28;20153;-71
2021/08/01 12:15:58;;;;;;;3.58;1.02;;;21.60;99.90;;;;;;5077570;28;20058;-70
2021/08/01 12:18:27;;;;;;;2.53;1.00;;;21.60;99.90;;;;;;5082274;28;20032;-70
2021/08/01 12:20:53;;;;;;;1.67;0.80;;;21.60;99.90;;;;;;5079749;28;20082;-70
2021/08/01 12:23:34;;;;;;;2.78;1.10;;;21.60;99.90;;;;;;5076246;28;20036;-70
2021/08/01 12:26:00;;;;;;;2.65;0.90;;;21.70;99.90;;;;;;5088089;28;20044;-70
2021/08/01 12:28:38;;;;;;;2.10;1.08;;;21.50;99.90;;;;;;5079909;28;20032;-70
2021/08/01 12:31:04;;;;;;;2.15;1.20;;;21.30;99.90;;;;;;5088076;28;20024;-70
2021/08/01 12:33:29;;;;;;;2.50;1.08;;;21.20;99.90;;;;;;5088462;28;20020;-70
2021/08/01 12:35:55;;;;;;;2.40;1.10;;;21.10;99.90;;;;;;5065418;28;20043;-72
2021/08/01 12:38:24;;;;;;;1.67;0.90;;;20.80;99.90;;;;;;5069950;28;20029;-69
2021/08/01 12:40:50;;;;;;;3.38;1.30;;;20.70;99.90;;;;;;5068029;28;20112;-70
2021/08/01 12:43:29;;;;;;;3.70;1.05;;;20.50;99.90;;;;;;5067630;28;20521;-71
2021/08/01 12:45:56;;;;;;;3.30;1.10;;;20.40;99.90;;;;;;5051453;28;20484;-70
2021/08/01 12:48:24;;;;;;;1.98;0.60;;;20.30;99.90;;;;;;5083396;28;20024;-70